world map with HHE marked

HHE - Airport

This information may not be accurate or current and is not valid for navigation or flight planning. No warranty of fitness for any purpose is made or implied.

flag of Aomoriflag of Japan

Donate via PayPal

Additional information is available on the NEW Great Circle Mapper

Location
City:  Hachinohe, Aomori, Japan
Name:Hachinohe AB
ICAO / IATA:RJSH / HHE

Details
Type:Airport (Aerodrome, Airfield)
Use:Military
Latitude:40°33'23"N (40.556447)
Longitude:141°27'59"E (141.466325)
Datum:WGS 1984
Elevation:152 ft (46 m)
Runways:3
Longest:7380 × 148 ft (2249 × 45 m)

Time
Timezone:UTC+9 (DST+11)
Local Time:

Weather
METAR:RJSH  041346Z 28015G32KT 240V320 9999 FEW012 SCT030 M03/M10 Q1015 RMK 1ST012 3CU030 A2999

Related Locations
Nearby:
Farthest:SUEX: 11941 mi / 19217 km
Montevideo East [Montevideo East UIR], UY

Find:

   beyond  
but within

Other Information
Maps:
Sources:

  


 


Great Circle Mapper   Great Circle Mapper
Great Circle Mapper FAQ   Great Circle Mapper FAQ
  Karl's Home Page
KLSē   KLSē Home
   GC on Facebook
Airlines of the World   Airlines of the World
Donate via PayPal


Copyright © 2004-2020, Karl L. Swartz. All rights reserved.
All trademarks mentioned herein belong to their respective owners.

Please see credits for attribution and copyright information.

Karl Swartz <karl@kls2.com>
  Powered by FreeBSD
Valid HTML 4.01!
Labeled with ICRA
hCard Microformat
Geo Microformat